Latest Weather Observations for Derby

IDW60801

Issued at 12:35 pm WST Thursday 23 October 2014 (issued every 30 minutes, with the page automatically refreshed every 10 minutes)

About weather observations | Map of weather stations | Latest weather observations for WA | Other Formats
Station Details ID: 003032 Name: DERBY AERO Lat: -17.37 Lon: 123.66 Height: 6.2 m
Data from the previous 72 hours. | See also: Recent months at Derby
Date/Time
WST
Temp
°C
App
Temp
°C
Dew
Point
Rel
Hum
%
Delta-T
°C
Wind Press
QNH
hPa
Press
MSL
hPa
Rain
since 9 am
mm
Dir
 
Spd
km/h
Gust
km/h
Spd
kts
Gust
kts
23/12:30pm 34.0 34.4 22.4 50 8.0 NNW 24 33 13 18 1010.7 1010.7 0.0
23/12:00pm 33.6 34.6 22.1 51 7.9 N 20 28 11 15 1011.2 1011.2 0.0
23/11:30am 32.8 33.7 22.0 53 7.4 N 20 32 11 17 1011.7 1011.7 0.0
23/11:00am 32.8 34.1 22.6 55 7.0 N 20 32 11 17 1012.5 1012.5 0.0
23/10:30am 32.1 32.0 22.2 56 6.7 NNW 26 33 14 18 1012.4 1012.4 0.0
23/10:00am 31.5 31.6 22.5 59 6.1 NNW 26 33 14 18 1012.7 1012.7 0.0
23/09:30am 30.3 30.7 22.5 63 5.3 NNW 24 33 13 18 1013.1 1013.1 0.0
23/09:00am 30.2 31.8 22.9 65 5.0 N 19 24 10 13 1013.3 1013.3 0.0
23/08:30am 29.6 31.0 22.6 66 4.8 NW 19 24 10 13 1013.4 1013.4 0.0
23/08:00am 29.1 31.0 22.8 69 4.3 NNW 17 22 9 12 1013.5 1013.5 0.0
23/07:30am 28.5 30.4 23.4 74 3.5 NNW 19 26 10 14 1013.3 1013.3 0.0
23/07:00am 28.1 29.9 23.2 74 3.4 NNW 19 24 10 13 1012.5 1012.5 0.0
23/06:30am 27.3 29.0 23.1 78 2.9 NW 19 22 10 12 1012.3 1012.3 0.0
23/06:00am 26.9 29.3 23.6 82 2.3 NW 17 20 9 11 1012.0 1012.0 0.0
23/05:30am 26.6 28.5 23.5 83 2.1 WNW 19 24 10 13 1011.9 1011.9 0.0
23/05:00am 26.8 28.7 23.7 83 2.1 NW 20 28 11 15 1011.4 1011.4 0.0
23/04:30am 26.8 28.3 23.1 80 2.5 NW 20 24 11 13 1011.1 1011.1 0.0
23/04:00am 26.9 28.5 23.2 80 2.5 NNW 20 26 11 14 1010.9 1010.9 0.0
23/03:30am 26.7 28.2 23.0 80 2.5 NNW 20 28 11 15 1010.8 1010.8 0.0
23/03:00am 26.7 28.2 23.0 80 2.5 NNW 20 24 11 13 1010.7 1010.7 0.0
23/02:30am 26.8 28.4 23.3 81 2.4 N 20 26 11 14 1011.0 1011.0 0.0
23/02:00am 26.9 28.6 23.4 81 2.4 N 20 26 11 14 1010.8 1010.8 0.0
23/01:30am 27.2 29.0 23.2 79 2.7 N 19 20 10 11 1011.3 1011.3 0.0
23/01:00am 27.2 28.1 23.4 80 2.6 NNW 24 28 13 15 1011.0 1011.0 0.0
23/12:30am 27.2 27.6 23.2 79 2.7 NNW 26 32 14 17 1011.4 1011.4 0.0
23/12:00am 27.2 27.9 23.7 81 2.4 NNW 26 32 14 17 1011.9 1011.9 0.0
 
Date/Time
WST
Temp
°C
App
Temp
°C
Dew
Point
Rel
Hum
%
Delta-T
°C
Wind Press
QNH
hPa
Press
MSL
hPa
Rain
since 9 am
mm
Dir
 
Spd
km/h
Gust
km/h
Spd
kts
Gust
kts
22/11:30pm 27.2 28.1 23.4 80 2.6 NNW 24 30 13 16 1012.2 1012.2 0.0
22/11:00pm 27.4 28.5 23.6 80 2.6 NNW 24 30 13 16 1012.4 1012.4 0.0
22/10:30pm 27.4 28.6 23.8 81 2.5 NNW 24 28 13 15 1012.4 1012.4 0.0
22/10:00pm 27.6 28.4 23.8 80 2.6 NNW 26 32 14 17 1012.5 1012.5 0.0
22/09:30pm 27.9 28.6 23.7 78 2.9 NW 26 32 14 17 1012.6 1012.6 0.0
22/09:00pm 28.1 29.1 23.5 76 3.2 NW 24 32 13 17 1012.7 1012.7 0.0
22/08:30pm 28.3 29.5 23.9 77 3.0 N 24 32 13 17 1012.2 1012.2 0.0
22/08:00pm 28.4 29.2 23.8 76 3.2 N 26 33 14 18 1011.8 1011.8 0.0
22/07:30pm 28.5 29.0 23.9 76 3.2 NNW 28 35 15 19 1011.3 1011.3 0.0
22/07:00pm 28.6 28.8 23.5 74 3.5 NNW 28 37 15 20 1011.0 1011.0 0.0
22/06:30pm 28.9 29.3 23.1 71 4.0 NNW 26 35 14 19 1010.6 1010.6 0.0
22/06:00pm 29.2 29.3 23.2 70 4.1 NNW 28 37 15 20 1010.3 1010.3 0.0
22/05:30pm 29.4 28.3 22.9 68 4.4 NNW 33 41 18 22 1010.0 1010.0 0.0
22/05:00pm 30.6 29.6 22.7 62 5.4 NNW 32 39 17 21 1009.6 1009.6 0.0
22/04:30pm 31.5 31.0 22.2 57 6.3 NNW 28 35 15 19 1009.6 1009.6 0.0
22/04:00pm 32.5 31.6 20.7 49 7.9 NNW 26 35 14 19 1009.6 1009.6 0.0
22/03:30pm 33.4 31.9 20.9 48 8.4 NNW 30 37 16 20 1009.6 1009.6 0.0
22/03:00pm 34.5 32.6 19.3 40 10.0 NNW 28 33 15 18 1009.5 1009.5 0.0
22/02:30pm 34.8 33.2 20.0 42 9.9 NNW 28 35 15 19 1009.6 1009.6 0.0
22/02:00pm 34.6 33.6 21.3 46 9.0 NNW 28 35 15 19 1010.0 1010.0 0.0
22/01:30pm 34.7 33.4 21.4 46 9.0 NNW 30 37 16 20 1009.9 1009.9 0.0
22/01:00pm 33.3 32.8 22.1 52 7.6 NNW 28 35 15 19 1010.5 1010.5 0.0
22/12:30pm 33.1 31.9 20.9 48 8.2 NNW 28 35 15 19 1011.0 1011.0 0.0
22/12:00pm 32.7 30.7 19.9 46 8.5 NNW 30 37 16 20 1011.5 1011.5 0.0
22/11:30am 32.1 30.9 22.2 56 6.7 NNW 32 39 17 21 1012.1 1012.1 0.0
22/11:00am 32.5 31.1 20.4 49 8.1 NNW 28 37 15 20 1012.6 1012.6 0.0
22/10:30am 31.3 31.4 21.8 57 6.4 NNW 24 32 13 17 1013.0 1013.0 0.0
22/10:00am 31.5 31.0 22.8 60 6.0 NNW 30 37 16 20 1013.2 1013.2 0.0
22/09:30am 31.2 30.3 22.2 58 6.1 NNW 30 39 16 21 1013.0 1013.0 0.0
22/09:00am 30.5 30.8 22.9 64 5.2 NNW 26 33 14 18 1013.4 1013.4 -
22/08:30am 30.1 31.5 23.5 67 4.6 NNW 22 33 12 18 1013.6 1013.6 -
22/08:00am 29.2 29.6 23.2 70 4.1 N 26 35 14 19 1013.4 1013.4 -
22/07:30am 28.8 29.4 23.5 73 3.6 NNW 26 33 14 18 1013.0 1013.0 -
22/07:00am 28.3 28.8 23.9 77 3.0 NNW 28 33 15 18 1012.6 1012.6 -
22/06:30am 27.8 29.1 24.0 80 2.6 NNW 24 30 13 16 1012.2 1012.2 -
22/06:00am 27.3 29.4 23.7 81 2.5 NNW 19 26 10 14 1012.0 1012.0 -
22/05:30am 26.6 29.5 23.9 85 1.9 N 15 19 8 10 1011.9 1011.9 -
22/05:00am 26.7 29.3 24.0 85 1.9 N 17 20 9 11 1011.7 1011.7 -
22/04:30am 26.9 28.0 23.6 82 2.3 NW 24 30 13 16 1011.0 1011.0 -
22/04:00am 26.9 27.4 24.0 84 2.0 NNW 28 35 15 19 1010.8 1010.8 -
22/03:30am 26.9 27.7 23.8 83 2.1 NNW 26 32 14 17 1010.6 1010.6 -
22/03:00am 26.5 28.7 24.2 87 1.6 N 20 24 11 13 1010.7 1010.7 0.0
22/02:30am 26.3 28.5 24.0 87 1.6 N 19 26 10 14 1010.8 1010.8 -
22/02:00am 26.2 28.5 23.5 85 1.8 NNE 17 24 9 13 1011.2 1011.2 -
22/01:30am 26.6 29.0 23.7 84 2.0 N 17 22 9 12 1011.0 1011.0 -
22/01:00am 26.9 28.3 23.6 82 2.3 NNW 22 28 12 15 1010.8 1010.8 -
22/12:30am 26.8 29.0 23.3 81 2.4 N 17 22 9 12 1011.2 1011.2 -
22/12:00am 27.1 29.1 22.9 78 2.9 N 17 20 9 11 1011.3 1011.3 -
 
Date/Time
WST
Temp
°C
App
Temp
°C
Dew
Point
Rel
Hum
%
Delta-T
°C
Wind Press
QNH
hPa
Press
MSL
hPa
Rain
since 9 am
mm
Dir
 
Spd
km/h
Gust
km/h
Spd
kts
Gust
kts
21/11:30pm 27.4 29.1 23.0 77 3.0 N 19 22 10 12 1011.8 1011.8 -
21/11:00pm 27.6 29.6 23.0 76 3.1 N 17 24 9 13 1012.1 1012.1 -
21/10:30pm 28.0 30.0 22.9 74 3.5 N 17 20 9 11 1012.3 1012.3 -
21/10:00pm 28.3 30.1 23.2 74 3.5 N 19 24 10 13 1012.5 1012.5 -
21/09:30pm 28.9 31.1 23.3 72 3.8 NNW 17 24 9 13 1012.4 1012.4 -
21/09:00pm 29.4 32.0 23.3 69 4.2 N 15 19 8 10 1012.0 1012.0 0.0
21/08:30pm 30.1 32.0 22.8 65 5.0 NNW 17 20 9 11 1011.8 1011.8 -
21/08:00pm 30.6 32.1 22.7 62 5.4 NNW 19 22 10 12 1011.5 1011.5 -
21/07:30pm 31.0 33.0 23.6 64 5.1 NW 19 24 10 13 1011.3 1011.3 -
21/07:00pm 30.9 33.0 24.1 67 4.7 NNW 20 26 11 14 1010.6 1010.6 -
21/06:30pm 30.9 31.8 21.9 58 6.1 NNW 20 26 11 14 1010.3 1010.3 -
21/06:00pm 31.6 31.5 20.8 52 7.2 NW 22 28 12 15 1009.6 1009.6 -
21/05:30pm 32.6 31.2 18.8 44 9.0 NNW 24 30 13 16 1009.2 1009.2 -
21/05:00pm 33.9 31.8 16.3 35 11.1 NNW 22 30 12 16 1009.0 1009.0 -
21/04:30pm 34.3 31.9 18.3 38 10.4 NNW 28 35 15 19 1008.8 1008.8 -
21/04:00pm 36.4 32.9 16.5 30 12.7 NNW 30 33 16 18 1008.6 1008.6 -
21/03:30pm 37.9 34.0 13.2 23 15.1 NNW 26 32 14 17 1008.7 1008.7 -
21/03:00pm 38.6 35.2 13.8 23 15.4 NNW 24 30 13 16 1008.8 1008.8 -
21/02:30pm 37.8 33.9 15.6 27 14.1 NW 30 43 16 23 1008.8 1008.8 -
21/02:00pm 38.2 35.6 15.9 26 14.2 NNW 24 32 13 17 1009.4 1009.4 -
21/01:30pm 41.9 38.1 4.0 10 20.7 SSE 13 24 7 13 1009.6 1009.6 -
21/01:00pm 41.2 38.6 6.1 12 19.7 S 9 22 5 12 1010.2 1010.2 -
21/12:30pm 40.3 34.3 5.4 12 19.3 S 26 39 14 21 1010.9 1010.9 -
21/12:00pm 39.4 36.1 8.0 15 18.0 S 15 28 8 15 1011.7 1011.7 -
21/11:30am 37.2 35.9 12.6 23 14.9 S 11 26 6 14 1012.7 1012.7 -
21/11:00am - - - - - SSW 13 24 7 13 1013.3 1013.3 -
21/10:30am - - - - - SSW 9 19 5 10 1013.8 1013.8 -
21/10:00am - - - - - SSE 11 19 6 10 1014.5 1014.5 -
21/09:30am - - - - - - - - - - 1014.9 1014.9 -
21/09:00am - - - - - - - - - - 1015.0 1015.0 -
21/08:30am - - - - - - - - - - 1015.4 1015.4 -
21/08:00am - - - - - - - - - - 1015.0 1015.0 -
21/07:30am - - - - - - - - - - 1015.1 1015.1 -
21/07:00am - - - - - - - - - - 1015.0 1015.0 -
21/06:30am - - - - - - - - - - 1014.9 1014.9 -
21/06:00am - - - - - - - - - - 1014.5 1014.5 -
21/05:30am - - - - - - - - - - 1014.1 1014.1 -
21/05:00am - - - - - - - - - - 1013.6 1013.6 -
21/04:30am - - - - - - - - - - 1013.3 1013.3 -
21/04:00am - - - - - - - - - - 1011.9 1011.9 -
21/03:30am - - - - - - - - - - 1011.5 1011.5 -
21/03:00am - - - - - - - - - - 1011.2 1011.2 -
21/02:30am - - - - - - - - - - 1011.0 1011.0 -
21/02:00am - - - - - - - - - - 1010.9 1010.9 -
21/01:30am - - - - - - - - - - 1011.0 1011.0 -
21/01:00am - - - - - - - - - - 1011.0 1011.0 -
21/12:30am - - - - - - - - - - 1011.2 1011.2 -
21/12:00am - - - - - - - - - - 1011.5 1011.5 -
 
Date/Time
WST
Temp
°C
App
Temp
°C
Dew
Point
Rel
Hum
%
Delta-T
°C
Wind Press
QNH
hPa
Press
MSL
hPa
Rain
since 9 am
mm
Dir
 
Spd
km/h
Gust
km/h
Spd
kts
Gust
kts
20/11:30pm - - - - - - - - - - 1012.0 1012.0 -
20/11:00pm - - - - - - - - - - 1012.2 1012.2 -
20/10:30pm - - - - - - - - - - 1012.6 1012.6 -
20/10:00pm - - - - - - - - - - 1012.9 1012.9 -
20/09:30pm - - - - - - - - - - 1013.0 1013.0 -
20/09:00pm - - - - - - - - - - 1013.1 1013.1 -
20/08:30pm - - - - - - - - - - 1012.7 1012.7 -
20/08:00pm - - - - - - - - - - 1012.4 1012.4 -
20/07:30pm - - - - - - - - - - 1012.1 1012.1 -
20/07:00pm - - - - - - - - - - 1011.5 1011.5 -
20/06:30pm - - - - - - - - - - 1011.0 1011.0 -
20/06:00pm - - - - - - - - - - 1010.6 1010.6 -
20/05:30pm - - - - - - - - - - 1010.2 1010.2 -
20/05:00pm - - - - - - - - - - 1009.9 1009.9 -
20/04:30pm - - - - - - - - - - 1009.5 1009.5 -
20/04:00pm - - - - - - - - - - 1009.2 1009.2 -
20/03:30pm - - - - - - - - - - 1009.3 1009.3 -
20/03:00pm - - - - - - - - - - 1009.5 1009.5 -
20/02:30pm - - - - - - - - - - 1009.9 1009.9 -
20/02:00pm - - - - - - - - - - 1010.3 1010.3 -
20/01:30pm - - - - - - - - - - 1010.9 1010.9 -
20/01:00pm - - - - - - - - - - 1011.4 1011.4 -

Other Formats:

Comma delimited format used in spreadsheet applications
http://www.bom.gov.au/fwo/IDW60801/IDW60801.95205.axf

JavaScript Object Notation format (JSON) in row-major order
http://www.bom.gov.au/fwo/IDW60801/IDW60801.95205.json